Hickory, North Carolina
Current Conditions -  °F | °C
As of 10:53 AM on Friday 28 Nov 2014 (Local Time) from KHKY Reporting Station
Clear Clear  
Wind Chill: 32°   Ceiling: Unl
Heat Index: 37°   Visibility: 10mi
Dew Point: 18°   Wind: 6mph
Humidity: 46%   Direction: 340°NNW
Pressure: 30.35"   Gusts: NA
Location:  35.74°N, 81.33°W
Report Text: KHKY 281553Z 34005KT 10SM CLR 03/M08 A3035 RMK AO2 SLP276 T00281078
Loading
Personal Weather Stations






























Interactive Weather Map New forecast layout! Learn more

10-Day Weather Forecast

Advertisements
Track Severe Weather on mobile